Susan Ann — WCY5700 — position and weather

sailwx.info

Track history (hours):
 
Tides and Currents Weather Stations Pressure Air Temp Water Temp Dewpoint Dewpoint Depression Visibility Wind Speed Wind Dir Waves Ship Positions

Susan Ann

Owner: CROSS SOUND FERRY SERVICES INC, NEW LONDON, CT. More information available from US FCC via Universal Licensing System and Coast Guard Vessel Documentation Center.

Last reported at 2016-Feb-13 01:26 UTC. Time now 2016-Feb-13 06:48 UTC.
Position N 41°09' W 072°14'.

Length 72 m; draft 4 m.

Type: Passenger vessel. MMSI: 367354350.

Date/timePositionNaut miles runAvg speedWind from/ knotsBaromVisibWave heightAir tempDewpointWater temp
2016-Feb-13 01:26N 41°09' W 072°14'3 1.1
2016-Feb-12 22:33N 41°12' W 072°12'3 3.0
2016-Feb-12 21:26N 41°09' W 072°14'5 1.8
2016-Feb-12 18:33N 41°13' W 072°10'5 3.7
2016-Feb-12 17:13N 41°09' W 072°14'5 1.7
2016-Feb-12 14:33N 41°13' W 072°10'5 3.8
2016-Feb-12 13:15N 41°09' W 072°14'4 0.3
2016-Feb-12 00:33N 41°13' W 072°13'4 3.6
2016-Feb-11 23:27N 41°09' W 072°14'0 0.0
2016-Feb-11 19:30N 41°09' W 072°14'0 0.0
2016-Feb-11 15:15N 41°09' W 072°14'811.2
2016-Feb-11 14:33N 41°16' W 072°08'3 1.3
2016-Feb-11 12:32N 41°13' W 072°10'5 0.5
2016-Feb-11 01:15N 41°09' W 072°14'912.2
2016-Feb-11 00:30N 41°16' W 072°07'4 1.9
2016-Feb-10 22:33N 41°13' W 072°10'5 5.1
2016-Feb-10 21:30N 41°09' W 072°14'4 1.3
2016-Feb-10 18:29N 41°12' W 072°11'3 2.5
2016-Feb-10 17:08N 41°09' W 072°13'5 1.8
2016-Feb-10 14:33N 41°14' W 072°10'5 4.1
2016-Feb-10 13:14N 41°09' W 072°14'5 0.4
2016-Feb-10 00:33N 41°13' W 072°10'5 4.6
2016-Feb-09 23:23N 41°09' W 072°14'4 1.4
2016-Feb-09 20:30N 41°12' W 072°11'4 3.8
2016-Feb-09 19:27N 41°09' W 072°14'4 1.4
2016-Feb-09 16:29N 41°12' W 072°11'3 2.5
2016-Feb-09 15:12N 41°10' W 072°13'4 1.5
2016-Feb-09 12:33N 41°13' W 072°11'5 0.4
2016-Feb-09 01:14N 41°09' W 072°14'812.4
2016-Feb-09 00:34N 41°16' W 072°08'3 1.6
2016-Feb-08 22:34N 41°13' W 072°10'5 3.5
2016-Feb-08 21:15N 41°09' W 072°13'3 1.3
2016-Feb-08 18:31N 41°12' W 072°11'4 3.4
2016-Feb-08 17:20N 41°09' W 072°14'4 1.4
2016-Feb-08 14:31N 41°12' W 072°11'4 3.1
2016-Feb-08 13:18N 41°09' W 072°13'6 0.4
2016-Feb-08 00:33N 41°14' W 072°09'6 4.7
2016-Feb-07 23:18N 41°09' W 072°14'810.9
2016-Feb-07 22:33N 41°15' W 072°08'3 1.5
2016-Feb-07 20:33N 41°13' W 072°10'5 5.0
2016-Feb-07 19:33N 41°09' W 072°14'9 8.4
2016-Feb-07 18:32N 41°16' W 072°07'4 1.9
2016-Feb-07 16:33N 41°13' W 072°10'5 4.8
2016-Feb-07 15:31N 41°09' W 072°14'9 8.7
2016-Feb-07 14:31N 41°16' W 072°07'3 1.8
2016-Feb-07 12:33N 41°13' W 072°10'5 5.2
2016-Feb-07 11:33N 41°09' W 072°14'0 0.0
2016-Feb-07 01:19N 41°09' W 072°14'4 1.4
2016-Feb-06 22:30N 41°12' W 072°11'4 3.7
2016-Feb-06 21:24N 41°09' W 072°14'6 2.1
2016-Feb-06 18:33N 41°14' W 072°09'6 5.0
2016-Feb-06 17:21N 41°09' W 072°14'5 1.9
2016-Feb-06 14:33N 41°13' W 072°10'5 5.1
2016-Feb-06 13:32N 41°09' W 072°14'8 8.7
2016-Feb-06 12:33N 41°16' W 072°07'4 0.4
2016-Feb-06 00:30N 41°12' W 072°11'4 4.2
2016-Feb-05 23:33N 41°09' W 072°14'1 0.3
2016-Feb-05 19:07N 41°10' W 072°13'0 0.1
2016-Feb-05 15:08N 41°10' W 072°14'1 0.1
2016-Feb-05 01:11N 41°09' W 072°13'5 1.7
2016-Feb-04 22:33N 41°14' W 072°11'5 3.9
2016-Feb-04 21:14N 41°09' W 072°14'912.5
2016-Feb-04 20:33N 41°16' W 072°08'4 2.2
2016-Feb-04 18:29N 41°12' W 072°11'4 4.3
2016-Feb-04 17:32N 41°09' W 072°14'2 0.4
2016-Feb-04 13:04N 41°11' W 072°13'4 0.3
2016-Feb-04 00:33N 41°14' W 072°10'5 3.8
2016-Feb-03 23:13N 41°09' W 072°13'3 1.1
2016-Feb-03 20:25N 41°12' W 072°12'2 0.6
2016-Feb-03 16:33N 41°14' W 072°10'6 5.0
2016-Feb-03 15:24N 41°09' W 072°14'6 2.0
2016-Feb-03 12:33N 41°14' W 072°10'6 0.5
2016-Feb-03 01:31N 41°09' W 072°14'  
Track history (hours):
 
Tides and Currents Weather Stations Pressure Air Temp Water Temp Dewpoint Dewpoint Depression Visibility Wind Speed Wind Dir Waves Ship Positions

Susan Ann

Owner: CROSS SOUND FERRY SERVICES INC, NEW LONDON, CT. More information available from US FCC via Universal Licensing System and Coast Guard Vessel Documentation Center.

Last reported at 2016-Feb-13 01:26 UTC. Time now 2016-Feb-13 06:48 UTC.
Position N 41°09' W 072°14'.

Length 72 m; draft 4 m.

Type: Passenger vessel. MMSI: 367354350.

Date/timePositionNaut miles runAvg speedWind from/ knotsBaromVisibWave heightAir tempDewpointWater temp
2016-Feb-13 01:26N 41°09' W 072°14'3 1.1
2016-Feb-12 22:33N 41°12' W 072°12'3 3.0
2016-Feb-12 21:26N 41°09' W 072°14'5 1.8
2016-Feb-12 18:33N 41°13' W 072°10'5 3.7
2016-Feb-12 17:13N 41°09' W 072°14'5 1.7
2016-Feb-12 14:33N 41°13' W 072°10'5 3.8
2016-Feb-12 13:15N 41°09' W 072°14'4 0.3
2016-Feb-12 00:33N 41°13' W 072°13'4 3.6
2016-Feb-11 23:27N 41°09' W 072°14'0 0.0
2016-Feb-11 19:30N 41°09' W 072°14'0 0.0
2016-Feb-11 15:15N 41°09' W 072°14'811.2
2016-Feb-11 14:33N 41°16' W 072°08'3 1.3
2016-Feb-11 12:32N 41°13' W 072°10'5 0.5
2016-Feb-11 01:15N 41°09' W 072°14'912.2
2016-Feb-11 00:30N 41°16' W 072°07'4 1.9
2016-Feb-10 22:33N 41°13' W 072°10'5 5.1
2016-Feb-10 21:30N 41°09' W 072°14'4 1.3
2016-Feb-10 18:29N 41°12' W 072°11'3 2.5
2016-Feb-10 17:08N 41°09' W 072°13'5 1.8
2016-Feb-10 14:33N 41°14' W 072°10'5 4.1
2016-Feb-10 13:14N 41°09' W 072°14'5 0.4
2016-Feb-10 00:33N 41°13' W 072°10'5 4.6
2016-Feb-09 23:23N 41°09' W 072°14'4 1.4
2016-Feb-09 20:30N 41°12' W 072°11'4 3.8
2016-Feb-09 19:27N 41°09' W 072°14'4 1.4
2016-Feb-09 16:29N 41°12' W 072°11'3 2.5
2016-Feb-09 15:12N 41°10' W 072°13'4 1.5
2016-Feb-09 12:33N 41°13' W 072°11'5 0.4
2016-Feb-09 01:14N 41°09' W 072°14'812.4
2016-Feb-09 00:34N 41°16' W 072°08'3 1.6
2016-Feb-08 22:34N 41°13' W 072°10'5 3.5
2016-Feb-08 21:15N 41°09' W 072°13'3 1.3
2016-Feb-08 18:31N 41°12' W 072°11'4 3.4
2016-Feb-08 17:20N 41°09' W 072°14'4 1.4
2016-Feb-08 14:31N 41°12' W 072°11'4 3.1
2016-Feb-08 13:18N 41°09' W 072°13'6 0.4
2016-Feb-08 00:33N 41°14' W 072°09'6 4.7
2016-Feb-07 23:18N 41°09' W 072°14'810.9
2016-Feb-07 22:33N 41°15' W 072°08'3 1.5
2016-Feb-07 20:33N 41°13' W 072°10'5 5.0
2016-Feb-07 19:33N 41°09' W 072°14'9 8.4
2016-Feb-07 18:32N 41°16' W 072°07'4 1.9
2016-Feb-07 16:33N 41°13' W 072°10'5 4.8
2016-Feb-07 15:31N 41°09' W 072°14'9 8.7
2016-Feb-07 14:31N 41°16' W 072°07'3 1.8
2016-Feb-07 12:33N 41°13' W 072°10'5 5.2
2016-Feb-07 11:33N 41°09' W 072°14'0 0.0
2016-Feb-07 01:19N 41°09' W 072°14'4 1.4
2016-Feb-06 22:30N 41°12' W 072°11'4 3.7
2016-Feb-06 21:24N 41°09' W 072°14'6 2.1
2016-Feb-06 18:33N 41°14' W 072°09'6 5.0
2016-Feb-06 17:21N 41°09' W 072°14'5 1.9
2016-Feb-06 14:33N 41°13' W 072°10'5 5.1
2016-Feb-06 13:32N 41°09' W 072°14'8 8.7
2016-Feb-06 12:33N 41°16' W 072°07'4 0.4
2016-Feb-06 00:30N 41°12' W 072°11'4 4.2
2016-Feb-05 23:33N 41°09' W 072°14'1 0.3
2016-Feb-05 19:07N 41°10' W 072°13'0 0.1
2016-Feb-05 15:08N 41°10' W 072°14'1 0.1
2016-Feb-05 01:11N 41°09' W 072°13'5 1.7
2016-Feb-04 22:33N 41°14' W 072°11'5 3.9
2016-Feb-04 21:14N 41°09' W 072°14'912.5
2016-Feb-04 20:33N 41°16' W 072°08'4 2.2
2016-Feb-04 18:29N 41°12' W 072°11'4 4.3
2016-Feb-04 17:32N 41°09' W 072°14'2 0.4
2016-Feb-04 13:04N 41°11' W 072°13'4 0.3
2016-Feb-04 00:33N 41°14' W 072°10'5 3.8
2016-Feb-03 23:13N 41°09' W 072°13'3 1.1
2016-Feb-03 20:25N 41°12' W 072°12'2 0.6
2016-Feb-03 16:33N 41°14' W 072°10'6 5.0
2016-Feb-03 15:24N 41°09' W 072°14'6 2.0
2016-Feb-03 12:33N 41°14' W 072°10'6 0.5
2016-Feb-03 01:31N 41°09' W 072°14'  

Dump ship's entire track history